Weather at Baltimore/Washington International Thurgood Marshall Airport

Public forecast

Using degrees Fahrenheit for public forecast. Weather courtesy of forecast.io.

Current aviation weather report (METAR) for Baltimore/Washington International Thurgood Marshall Airport

2022/12/06 05:54 (retrieved 41 minutes ago)

KBWI 060554Z 00000KT 10SM SCT031 SCT250 M01/M03 A3025 RMK AO2 SLP242 T10111033 10050 21011 58005

Aviation forecast (TAF) for Baltimore/Washington International Thurgood Marshall Airport

2022/12/06 06:39 (retrieved 0 seconds ago)

TAF KBWI 060537Z 0606/0712 00000KT P6SM SCT250 FM060900 00000KT P6SM OVC040 FM061300 00000KT 6SM -RA BR OVC025 WS020/17030KT FM061600 13004KT 5SM RA BR OVC010 WS020/18030KT FM061900 17004KT 3SM RA BR OVC008 FM070000 15004KT 2SM -RA BR OVC003